Ana Sayfa
METAR-TAF:

METAR-TAF

Havaalanları :

Torreón, Meksika

Enlem: 25-32N, Boylam: 103-27W, yükseklik: 1124 m

Güncel hava durumu gözlemi

Rapor saat 01:40 UTC de 7 saat ve 44 dakika önce yapıldı.
Sakin rüzgar
Sıcaklık 33°C
Nem 10%
Basınç 1006 hPa
Görüş mesafesi: 24.1 km
Açık gökyüzü

METAR: MMTC 250140Z 00000KT 15SM SKC 33/M02 A2972

Saat: 04:24 (09:24 UTC)

Tahmin

Rapor saat 04:35 UTC de 4 saat ve 49 dakika önce yapıldı.
Ayın 25'si saat 06 UTC'den ayın 26'si saat 06 UTC'ye kadar geçerli Tahmin
Rüzgar kuzeydan kt
Görüş mesafesi: 10 km
Açık gökyüzü
Ayın 25'si saat 1600 UTC'den
Rüzgar kuzey/kuzeybatıdan 10 kt
Görüş mesafesi: 10 km
Açık gökyüzü
Ayın 26'si saat 0300 UTC'den
Rüzgar kuzeydan kt
Görüş mesafesi: 10 km
Açık gökyüzü

TAF: MMTC 250435Z 2506/2606 00000KT P6SM SKC FM251600 33010KT P6SM SKC FM260300 00000KT P6SM SKC

4.000'den fazla havaalanı için hava durumu gözlemleri ve tahminleri (METAR ve TAF raporları).

Kullanılabilir istasyonlar harita üzerinde sarı ve kırmızı noktalarla gösterilir.

İstasyonun adını görmek için fareyi noktanın üzerinde gezdirin.

Sonrasında hava gözlem ve tahminlerini görmek için tıklayın.

Haritayı değiştirmek için: yaklaştırmak için siyah artı işaretli yeşil düğmeye ve uzaklaştırmak için de eksi işaretli düğmeye hızla tıklayın; bitişik haritalar için yeşil okları kullanın.


METAR-TAF: